sensor_id;sensor_type;location;lat;lon;timestamp;P1;durP1;ratioP1;P2;durP2;ratioP2
16826;SDS011;8530;49.540;8.576;2023-12-22T00:02:18;1.57;;;1.47;;
16826;SDS011;8530;49.540;8.576;2023-12-22T00:04:45;2.40;;;1.40;;
16826;SDS011;8530;49.540;8.576;2023-12-22T00:07:14;1.40;;;1.30;;
16826;SDS011;8530;49.540;8.576;2023-12-22T00:09:41;1.60;;;1.40;;
16826;SDS011;8530;49.540;8.576;2023-12-22T00:12:07;1.47;;;1.37;;
16826;SDS011;8530;49.540;8.576;2023-12-22T00:14:34;1.47;;;1.37;;
16826;SDS011;8530;49.540;8.576;2023-12-22T00:17:02;2.70;;;1.50;;
16826;SDS011;8530;49.540;8.576;2023-12-22T00:19:29;1.90;;;1.60;;
16826;SDS011;8530;49.540;8.576;2023-12-22T00:21:56;1.60;;;1.50;;
16826;SDS011;8530;49.540;8.576;2023-12-22T00:24:24;6.30;;;3.37;;
16826;SDS011;8530;49.540;8.576;2023-12-22T00:26:51;3.00;;;1.90;;
16826;SDS011;8530;49.540;8.576;2023-12-22T00:29:18;1.40;;;1.30;;
16826;SDS011;8530;49.540;8.576;2023-12-22T00:31:44;1.90;;;1.70;;
16826;SDS011;8530;49.540;8.576;2023-12-22T00:34:11;1.47;;;1.37;;
16826;SDS011;8530;49.540;8.576;2023-12-22T00:36:38;1.53;;;1.43;;
16826;SDS011;8530;49.540;8.576;2023-12-22T00:39:05;1.40;;;1.30;;
16826;SDS011;8530;49.540;8.576;2023-12-22T00:41:34;1.77;;;1.67;;
16826;SDS011;8530;49.540;8.576;2023-12-22T00:44:00;1.50;;;1.40;;
16826;SDS011;8530;49.540;8.576;2023-12-22T00:46:27;1.40;;;1.30;;
16826;SDS011;8530;49.540;8.576;2023-12-22T00:48:54;1.60;;;1.50;;
16826;SDS011;8530;49.540;8.576;2023-12-22T00:51:21;1.60;;;1.50;;
16826;SDS011;8530;49.540;8.576;2023-12-22T00:53:47;1.50;;;1.40;;
16826;SDS011;8530;49.540;8.576;2023-12-22T00:56:14;1.60;;;1.50;;
16826;SDS011;8530;49.540;8.576;2023-12-22T00:58:42;1.93;;;1.77;;
16826;SDS011;8530;49.540;8.576;2023-12-22T01:01:09;1.47;;;1.37;;
16826;SDS011;8530;49.540;8.576;2023-12-22T01:03:36;1.53;;;1.43;;
16826;SDS011;8530;49.540;8.576;2023-12-22T01:06:03;2.00;;;1.60;;
16826;SDS011;8530;49.540;8.576;2023-12-22T01:08:29;1.93;;;1.67;;
16826;SDS011;8530;49.540;8.576;2023-12-22T01:10:56;1.50;;;1.40;;
16826;SDS011;8530;49.540;8.576;2023-12-22T01:13:23;1.50;;;1.40;;
16826;SDS011;8530;49.540;8.576;2023-12-22T01:15:51;1.70;;;1.60;;
16826;SDS011;8530;49.540;8.576;2023-12-22T01:18:17;2.17;;;1.40;;
16826;SDS011;8530;49.540;8.576;2023-12-22T01:20:44;1.60;;;1.50;;
16826;SDS011;8530;49.540;8.576;2023-12-22T01:23:11;2.10;;;1.50;;
16826;SDS011;8530;49.540;8.576;2023-12-22T01:25:38;1.70;;;1.60;;
16826;SDS011;8530;49.540;8.576;2023-12-22T01:28:04;1.50;;;1.40;;
16826;SDS011;8530;49.540;8.576;2023-12-22T01:30:31;1.67;;;1.57;;
16826;SDS011;8530;49.540;8.576;2023-12-22T01:33:00;1.83;;;1.73;;
16826;SDS011;8530;49.540;8.576;2023-12-22T01:35:26;1.60;;;1.50;;
16826;SDS011;8530;49.540;8.576;2023-12-22T01:37:53;1.50;;;1.40;;
16826;SDS011;8530;49.540;8.576;2023-12-22T01:40:21;1.70;;;1.60;;
16826;SDS011;8530;49.540;8.576;2023-12-22T01:42:48;1.90;;;1.80;;
16826;SDS011;8530;49.540;8.576;2023-12-22T01:45:15;1.93;;;1.73;;
16826;SDS011;8530;49.540;8.576;2023-12-22T01:47:42;2.00;;;1.90;;
16826;SDS011;8530;49.540;8.576;2023-12-22T01:50:12;6.90;;;2.10;;
16826;SDS011;8530;49.540;8.576;2023-12-22T01:52:41;2.47;;;1.87;;
16826;SDS011;8530;49.540;8.576;2023-12-22T01:55:09;3.10;;;2.80;;
16826;SDS011;8530;49.540;8.576;2023-12-22T01:57:38;4.70;;;2.20;;
16826;SDS011;8530;49.540;8.576;2023-12-22T02:00:06;2.97;;;2.77;;
16826;SDS011;8530;49.540;8.576;2023-12-22T02:02:33;5.83;;;4.27;;
16826;SDS011;8530;49.540;8.576;2023-12-22T02:05:00;3.90;;;3.50;;
16826;SDS011;8530;49.540;8.576;2023-12-22T02:07:29;3.40;;;3.10;;
16826;SDS011;8530;49.540;8.576;2023-12-22T02:09:56;2.90;;;2.60;;
16826;SDS011;8530;49.540;8.576;2023-12-22T02:12:23;5.57;;;2.70;;
16826;SDS011;8530;49.540;8.576;2023-12-22T02:14:50;4.50;;;2.77;;
16826;SDS011;8530;49.540;8.576;2023-12-22T02:17:18;4.07;;;2.90;;
16826;SDS011;8530;49.540;8.576;2023-12-22T02:19:49;3.00;;;2.77;;
16826;SDS011;8530;49.540;8.576;2023-12-22T02:22:17;7.17;;;2.80;;
16826;SDS011;8530;49.540;8.576;2023-12-22T02:24:45;5.73;;;2.47;;
16826;SDS011;8530;49.540;8.576;2023-12-22T02:27:15;3.47;;;3.00;;
16826;SDS011;8530;49.540;8.576;2023-12-22T02:29:50;4.10;;;2.83;;
16826;SDS011;8530;49.540;8.576;2023-12-22T02:32:21;5.03;;;2.27;;
16826;SDS011;8530;49.540;8.576;2023-12-22T02:34:51;2.70;;;2.40;;
16826;SDS011;8530;49.540;8.576;2023-12-22T02:37:19;7.80;;;2.17;;
16826;SDS011;8530;49.540;8.576;2023-12-22T02:39:48;2.17;;;1.90;;
16826;SDS011;8530;49.540;8.576;2023-12-22T02:42:16;7.20;;;2.43;;
16826;SDS011;8530;49.540;8.576;2023-12-22T02:44:43;6.97;;;1.73;;
16826;SDS011;8530;49.540;8.576;2023-12-22T02:47:10;6.50;;;2.27;;
16826;SDS011;8530;49.540;8.576;2023-12-22T02:49:36;8.60;;;2.43;;
16826;SDS011;8530;49.540;8.576;2023-12-22T02:52:03;3.80;;;3.13;;
16826;SDS011;8530;49.540;8.576;2023-12-22T02:54:31;7.30;;;3.10;;
16826;SDS011;8530;49.540;8.576;2023-12-22T02:56:59;5.10;;;2.20;;
16826;SDS011;8530;49.540;8.576;2023-12-22T02:59:26;5.73;;;3.00;;
16826;SDS011;8530;49.540;8.576;2023-12-22T03:01:53;6.80;;;2.40;;
16826;SDS011;8530;49.540;8.576;2023-12-22T03:04:20;6.93;;;2.57;;
16826;SDS011;8530;49.540;8.576;2023-12-22T03:06:47;4.10;;;2.00;;
16826;SDS011;8530;49.540;8.576;2023-12-22T03:09:13;3.67;;;2.10;;
16826;SDS011;8530;49.540;8.576;2023-12-22T03:11:40;8.93;;;2.30;;
16826;SDS011;8530;49.540;8.576;2023-12-22T03:14:08;3.33;;;1.90;;
16826;SDS011;8530;49.540;8.576;2023-12-22T03:16:35;3.10;;;2.40;;
16826;SDS011;8530;49.540;8.576;2023-12-22T03:19:01;6.87;;;2.10;;
16826;SDS011;8530;49.540;8.576;2023-12-22T03:21:28;7.70;;;3.20;;
16826;SDS011;8530;49.540;8.576;2023-12-22T03:23:55;2.60;;;2.00;;
16826;SDS011;8530;49.540;8.576;2023-12-22T03:26:21;2.60;;;1.93;;
16826;SDS011;8530;49.540;8.576;2023-12-22T03:28:48;9.80;;;4.40;;
16826;SDS011;8530;49.540;8.576;2023-12-22T03:31:16;6.23;;;2.67;;
16826;SDS011;8530;49.540;8.576;2023-12-22T03:33:43;12.17;;;2.70;;
16826;SDS011;8530;49.540;8.576;2023-12-22T03:36:09;5.00;;;2.30;;
16826;SDS011;8530;49.540;8.576;2023-12-22T03:38:36;3.40;;;2.37;;
16826;SDS011;8530;49.540;8.576;2023-12-22T03:41:03;6.20;;;2.60;;
16826;SDS011;8530;49.540;8.576;2023-12-22T03:43:30;8.37;;;2.23;;
16826;SDS011;8530;49.540;8.576;2023-12-22T03:45:57;5.80;;;2.63;;
16826;SDS011;8530;49.540;8.576;2023-12-22T03:48:25;11.00;;;2.63;;
16826;SDS011;8530;49.540;8.576;2023-12-22T03:50:51;4.67;;;2.27;;
16826;SDS011;8530;49.540;8.576;2023-12-22T03:53:18;4.57;;;2.43;;
16826;SDS011;8530;49.540;8.576;2023-12-22T03:55:45;3.33;;;2.33;;
16826;SDS011;8530;49.540;8.576;2023-12-22T03:58:12;6.00;;;2.37;;
16826;SDS011;8530;49.540;8.576;2023-12-22T04:00:38;3.23;;;2.10;;
16826;SDS011;8530;49.540;8.576;2023-12-22T04:03:05;5.73;;;2.83;;
16826;SDS011;8530;49.540;8.576;2023-12-22T04:05:33;3.27;;;2.03;;
16826;SDS011;8530;49.540;8.576;2023-12-22T04:08:00;4.47;;;2.30;;
16826;SDS011;8530;49.540;8.576;2023-12-22T04:10:26;12.20;;;5.23;;
16826;SDS011;8530;49.540;8.576;2023-12-22T04:12:53;7.70;;;3.50;;
16826;SDS011;8530;49.540;8.576;2023-12-22T04:15:20;4.67;;;2.77;;
16826;SDS011;8530;49.540;8.576;2023-12-22T04:17:46;9.63;;;3.10;;
16826;SDS011;8530;49.540;8.576;2023-12-22T04:20:14;9.30;;;3.37;;
16826;SDS011;8530;49.540;8.576;2023-12-22T04:22:42;5.30;;;3.03;;
16826;SDS011;8530;49.540;8.576;2023-12-22T04:25:10;3.50;;;2.20;;
16826;SDS011;8530;49.540;8.576;2023-12-22T04:27:36;4.50;;;2.20;;
16826;SDS011;8530;49.540;8.576;2023-12-22T04:30:03;3.90;;;1.90;;
16826;SDS011;8530;49.540;8.576;2023-12-22T04:32:31;3.17;;;1.90;;
16826;SDS011;8530;49.540;8.576;2023-12-22T04:34:58;8.80;;;3.03;;
16826;SDS011;8530;49.540;8.576;2023-12-22T04:37:25;4.30;;;2.23;;
16826;SDS011;8530;49.540;8.576;2023-12-22T04:39:53;5.63;;;2.47;;
16826;SDS011;8530;49.540;8.576;2023-12-22T04:42:19;4.23;;;2.67;;
16826;SDS011;8530;49.540;8.576;2023-12-22T04:44:46;4.50;;;2.30;;
16826;SDS011;8530;49.540;8.576;2023-12-22T04:47:13;4.17;;;3.07;;
16826;SDS011;8530;49.540;8.576;2023-12-22T04:49:40;4.63;;;2.80;;
16826;SDS011;8530;49.540;8.576;2023-12-22T04:52:07;4.97;;;2.90;;
16826;SDS011;8530;49.540;8.576;2023-12-22T04:54:33;5.97;;;2.17;;
16826;SDS011;8530;49.540;8.576;2023-12-22T04:57:02;7.00;;;3.00;;
16826;SDS011;8530;49.540;8.576;2023-12-22T04:59:29;11.60;;;6.63;;
16826;SDS011;8530;49.540;8.576;2023-12-22T05:01:56;13.57;;;6.87;;
16826;SDS011;8530;49.540;8.576;2023-12-22T05:04:22;13.10;;;8.10;;
16826;SDS011;8530;49.540;8.576;2023-12-22T05:06:49;11.27;;;5.20;;
16826;SDS011;8530;49.540;8.576;2023-12-22T05:09:16;6.47;;;2.37;;
16826;SDS011;8530;49.540;8.576;2023-12-22T05:11:42;5.93;;;2.87;;
16826;SDS011;8530;49.540;8.576;2023-12-22T05:14:10;11.53;;;2.73;;
16826;SDS011;8530;49.540;8.576;2023-12-22T05:16:37;6.50;;;2.70;;
16826;SDS011;8530;49.540;8.576;2023-12-22T05:19:04;6.03;;;2.47;;
16826;SDS011;8530;49.540;8.576;2023-12-22T05:21:30;6.63;;;2.60;;
16826;SDS011;8530;49.540;8.576;2023-12-22T05:23:57;5.13;;;2.40;;
16826;SDS011;8530;49.540;8.576;2023-12-22T05:26:24;4.10;;;2.80;;
16826;SDS011;8530;49.540;8.576;2023-12-22T05:28:55;3.23;;;1.90;;
16826;SDS011;8530;49.540;8.576;2023-12-22T05:31:23;4.47;;;1.80;;
16826;SDS011;8530;49.540;8.576;2023-12-22T05:33:49;6.33;;;2.73;;
16826;SDS011;8530;49.540;8.576;2023-12-22T05:36:16;3.30;;;2.10;;
16826;SDS011;8530;49.540;8.576;2023-12-22T05:38:43;4.30;;;2.70;;
16826;SDS011;8530;49.540;8.576;2023-12-22T05:41:10;8.53;;;2.43;;
16826;SDS011;8530;49.540;8.576;2023-12-22T05:43:37;4.80;;;2.40;;
16826;SDS011;8530;49.540;8.576;2023-12-22T05:46:04;7.17;;;2.63;;
16826;SDS011;8530;49.540;8.576;2023-12-22T05:48:32;2.90;;;2.23;;
16826;SDS011;8530;49.540;8.576;2023-12-22T05:51:00;7.30;;;2.87;;
16826;SDS011;8530;49.540;8.576;2023-12-22T05:53:28;5.77;;;2.53;;
16826;SDS011;8530;49.540;8.576;2023-12-22T05:55:54;9.97;;;2.50;;
16826;SDS011;8530;49.540;8.576;2023-12-22T05:58:21;7.30;;;2.60;;
16826;SDS011;8530;49.540;8.576;2023-12-22T06:00:48;11.80;;;4.83;;
16826;SDS011;8530;49.540;8.576;2023-12-22T06:03:15;5.07;;;3.50;;
16826;SDS011;8530;49.540;8.576;2023-12-22T06:05:43;8.50;;;3.87;;
16826;SDS011;8530;49.540;8.576;2023-12-22T06:08:09;9.70;;;4.20;;
16826;SDS011;8530;49.540;8.576;2023-12-22T06:10:36;7.77;;;3.53;;
16826;SDS011;8530;49.540;8.576;2023-12-22T06:13:03;5.90;;;2.70;;
16826;SDS011;8530;49.540;8.576;2023-12-22T06:15:30;10.63;;;3.17;;
16826;SDS011;8530;49.540;8.576;2023-12-22T06:17:57;8.43;;;3.20;;
16826;SDS011;8530;49.540;8.576;2023-12-22T06:20:24;8.40;;;3.97;;
16826;SDS011;8530;49.540;8.576;2023-12-22T06:22:52;8.83;;;3.33;;
16826;SDS011;8530;49.540;8.576;2023-12-22T06:25:19;6.83;;;3.40;;
16826;SDS011;8530;49.540;8.576;2023-12-22T06:27:46;7.43;;;2.70;;
16826;SDS011;8530;49.540;8.576;2023-12-22T06:30:13;11.60;;;3.30;;
16826;SDS011;8530;49.540;8.576;2023-12-22T06:32:40;5.90;;;3.20;;
16826;SDS011;8530;49.540;8.576;2023-12-22T06:35:07;9.57;;;3.57;;
16826;SDS011;8530;49.540;8.576;2023-12-22T06:37:35;8.90;;;3.40;;
16826;SDS011;8530;49.540;8.576;2023-12-22T06:40:04;10.83;;;4.80;;
16826;SDS011;8530;49.540;8.576;2023-12-22T06:42:31;12.70;;;3.90;;
16826;SDS011;8530;49.540;8.576;2023-12-22T06:44:58;6.23;;;3.80;;
16826;SDS011;8530;49.540;8.576;2023-12-22T06:47:25;18.70;;;3.13;;
16826;SDS011;8530;49.540;8.576;2023-12-22T06:49:52;15.07;;;3.83;;
16826;SDS011;8530;49.540;8.576;2023-12-22T06:52:18;12.23;;;3.83;;
16826;SDS011;8530;49.540;8.576;2023-12-22T06:54:45;7.40;;;2.83;;
16826;SDS011;8530;49.540;8.576;2023-12-22T06:57:13;15.23;;;3.93;;
16826;SDS011;8530;49.540;8.576;2023-12-22T06:59:41;12.10;;;3.77;;
16826;SDS011;8530;49.540;8.576;2023-12-22T07:02:08;14.53;;;3.43;;
16826;SDS011;8530;49.540;8.576;2023-12-22T07:04:35;7.30;;;2.30;;
16826;SDS011;8530;49.540;8.576;2023-12-22T07:07:01;3.50;;;2.43;;
16826;SDS011;8530;49.540;8.576;2023-12-22T07:09:31;15.33;;;3.50;;
16826;SDS011;8530;49.540;8.576;2023-12-22T07:11:58;6.13;;;3.27;;
16826;SDS011;8530;49.540;8.576;2023-12-22T07:14:26;7.73;;;2.83;;
16826;SDS011;8530;49.540;8.576;2023-12-22T07:16:53;8.37;;;3.67;;
16826;SDS011;8530;49.540;8.576;2023-12-22T07:19:19;7.37;;;2.77;;
16826;SDS011;8530;49.540;8.576;2023-12-22T07:21:47;6.90;;;2.87;;
16826;SDS011;8530;49.540;8.576;2023-12-22T07:24:14;11.10;;;2.50;;
16826;SDS011;8530;49.540;8.576;2023-12-22T07:26:41;12.03;;;3.20;;
16826;SDS011;8530;49.540;8.576;2023-12-22T07:29:09;12.93;;;3.73;;
16826;SDS011;8530;49.540;8.576;2023-12-22T07:31:37;6.33;;;2.53;;
16826;SDS011;8530;49.540;8.576;2023-12-22T07:34:04;9.80;;;3.37;;
16826;SDS011;8530;49.540;8.576;2023-12-22T07:36:30;5.17;;;2.87;;
16826;SDS011;8530;49.540;8.576;2023-12-22T07:38:57;9.17;;;3.07;;
16826;SDS011;8530;49.540;8.576;2023-12-22T07:41:25;7.73;;;3.73;;
16826;SDS011;8530;49.540;8.576;2023-12-22T07:43:52;6.90;;;3.07;;
16826;SDS011;8530;49.540;8.576;2023-12-22T07:46:19;7.20;;;2.93;;
16826;SDS011;8530;49.540;8.576;2023-12-22T07:48:48;8.87;;;4.10;;
16826;SDS011;8530;49.540;8.576;2023-12-22T07:51:15;6.93;;;2.93;;
16826;SDS011;8530;49.540;8.576;2023-12-22T07:53:41;5.70;;;3.00;;
16826;SDS011;8530;49.540;8.576;2023-12-22T07:56:08;5.70;;;2.90;;
16826;SDS011;8530;49.540;8.576;2023-12-22T07:58:35;8.80;;;2.60;;
16826;SDS011;8530;49.540;8.576;2023-12-22T08:01:03;3.80;;;2.63;;
16826;SDS011;8530;49.540;8.576;2023-12-22T08:03:30;9.90;;;2.63;;
16826;SDS011;8530;49.540;8.576;2023-12-22T08:05:58;4.07;;;2.43;;
16826;SDS011;8530;49.540;8.576;2023-12-22T08:08:25;3.73;;;2.10;;
16826;SDS011;8530;49.540;8.576;2023-12-22T08:10:51;2.67;;;1.90;;
16826;SDS011;8530;49.540;8.576;2023-12-22T08:13:18;8.83;;;2.40;;
16826;SDS011;8530;49.540;8.576;2023-12-22T08:15:45;6.50;;;3.00;;
16826;SDS011;8530;49.540;8.576;2023-12-22T08:18:12;3.43;;;1.97;;
16826;SDS011;8530;49.540;8.576;2023-12-22T08:20:38;6.67;;;2.70;;
16826;SDS011;8530;49.540;8.576;2023-12-22T08:23:06;2.70;;;2.20;;
16826;SDS011;8530;49.540;8.576;2023-12-22T08:25:33;5.70;;;2.37;;
16826;SDS011;8530;49.540;8.576;2023-12-22T08:28:00;2.70;;;1.63;;
16826;SDS011;8530;49.540;8.576;2023-12-22T08:30:27;4.20;;;1.83;;
16826;SDS011;8530;49.540;8.576;2023-12-22T08:32:53;2.70;;;1.80;;
16826;SDS011;8530;49.540;8.576;2023-12-22T08:35:20;2.83;;;2.13;;
16826;SDS011;8530;49.540;8.576;2023-12-22T08:37:47;2.77;;;2.10;;
16826;SDS011;8530;49.540;8.576;2023-12-22T08:40:15;3.30;;;2.37;;
16826;SDS011;8530;49.540;8.576;2023-12-22T08:42:41;4.70;;;2.10;;
16826;SDS011;8530;49.540;8.576;2023-12-22T08:45:08;1.80;;;1.70;;
16826;SDS011;8530;49.540;8.576;2023-12-22T08:47:35;2.00;;;1.80;;
16826;SDS011;8530;49.540;8.576;2023-12-22T08:50:01;2.63;;;2.00;;
16826;SDS011;8530;49.540;8.576;2023-12-22T08:52:32;7.17;;;2.90;;
16826;SDS011;8530;49.540;8.576;2023-12-22T08:55:00;7.17;;;2.33;;
16826;SDS011;8530;49.540;8.576;2023-12-22T08:57:28;6.90;;;2.60;;
16826;SDS011;8530;49.540;8.576;2023-12-22T08:59:54;11.00;;;3.10;;
16826;SDS011;8530;49.540;8.576;2023-12-22T09:02:21;6.40;;;2.63;;
16826;SDS011;8530;49.540;8.576;2023-12-22T09:04:48;6.83;;;2.90;;
16826;SDS011;8530;49.540;8.576;2023-12-22T09:07:16;8.20;;;2.57;;
16826;SDS011;8530;49.540;8.576;2023-12-22T09:09:42;5.83;;;2.97;;
16826;SDS011;8530;49.540;8.576;2023-12-22T09:12:09;6.77;;;3.20;;
16826;SDS011;8530;49.540;8.576;2023-12-22T09:14:37;10.50;;;3.33;;
16826;SDS011;8530;49.540;8.576;2023-12-22T09:17:04;15.40;;;2.83;;
16826;SDS011;8530;49.540;8.576;2023-12-22T09:19:31;12.20;;;3.47;;
16826;SDS011;8530;49.540;8.576;2023-12-22T09:21:58;15.27;;;4.43;;
16826;SDS011;8530;49.540;8.576;2023-12-22T09:24:25;11.43;;;3.80;;
16826;SDS011;8530;49.540;8.576;2023-12-22T09:26:52;6.20;;;3.50;;
16826;SDS011;8530;49.540;8.576;2023-12-22T09:29:19;7.93;;;3.10;;
16826;SDS011;8530;49.540;8.576;2023-12-22T09:31:48;14.20;;;3.40;;
16826;SDS011;8530;49.540;8.576;2023-12-22T09:34:15;18.57;;;4.10;;
16826;SDS011;8530;49.540;8.576;2023-12-22T09:36:41;7.57;;;3.83;;
16826;SDS011;8530;49.540;8.576;2023-12-22T09:39:08;13.07;;;3.77;;
16826;SDS011;8530;49.540;8.576;2023-12-22T09:41:35;12.30;;;3.50;;
16826;SDS011;8530;49.540;8.576;2023-12-22T09:44:01;16.00;;;4.43;;
16826;SDS011;8530;49.540;8.576;2023-12-22T09:46:30;12.70;;;3.93;;
16826;SDS011;8530;49.540;8.576;2023-12-22T09:48:58;15.60;;;3.60;;
16826;SDS011;8530;49.540;8.576;2023-12-22T09:51:26;9.43;;;4.50;;
16826;SDS011;8530;49.540;8.576;2023-12-22T09:53:54;21.60;;;4.10;;
16826;SDS011;8530;49.540;8.576;2023-12-22T09:56:23;13.73;;;4.10;;
16826;SDS011;8530;49.540;8.576;2023-12-22T09:58:51;18.47;;;5.07;;
16826;SDS011;8530;49.540;8.576;2023-12-22T10:01:19;14.40;;;4.97;;
16826;SDS011;8530;49.540;8.576;2023-12-22T10:03:48;8.60;;;3.47;;
16826;SDS011;8530;49.540;8.576;2023-12-22T10:06:16;23.73;;;5.53;;
16826;SDS011;8530;49.540;8.576;2023-12-22T10:08:43;12.03;;;4.93;;
16826;SDS011;8530;49.540;8.576;2023-12-22T10:11:10;16.40;;;4.90;;
16826;SDS011;8530;49.540;8.576;2023-12-22T10:13:38;22.73;;;4.10;;
16826;SDS011;8530;49.540;8.576;2023-12-22T10:16:06;14.27;;;4.30;;
16826;SDS011;8530;49.540;8.576;2023-12-22T10:18:33;16.80;;;6.13;;
16826;SDS011;8530;49.540;8.576;2023-12-22T10:21:00;14.83;;;3.93;;
16826;SDS011;8530;49.540;8.576;2023-12-22T10:23:28;12.77;;;4.83;;
16826;SDS011;8530;49.540;8.576;2023-12-22T10:25:56;15.10;;;4.30;;
16826;SDS011;8530;49.540;8.576;2023-12-22T10:28:24;17.07;;;4.13;;
16826;SDS011;8530;49.540;8.576;2023-12-22T10:30:53;13.60;;;4.83;;
16826;SDS011;8530;49.540;8.576;2023-12-22T10:33:22;17.53;;;4.97;;
16826;SDS011;8530;49.540;8.576;2023-12-22T10:35:49;12.23;;;3.70;;
16826;SDS011;8530;49.540;8.576;2023-12-22T10:38:17;18.70;;;5.07;;
16826;SDS011;8530;49.540;8.576;2023-12-22T10:40:46;23.90;;;5.30;;
16826;SDS011;8530;49.540;8.576;2023-12-22T10:43:13;15.60;;;5.80;;
16826;SDS011;8530;49.540;8.576;2023-12-22T10:45:40;16.83;;;5.30;;
16826;SDS011;8530;49.540;8.576;2023-12-22T10:48:07;17.40;;;5.97;;
16826;SDS011;8530;49.540;8.576;2023-12-22T10:50:34;16.20;;;5.27;;
16826;SDS011;8530;49.540;8.576;2023-12-22T10:53:00;12.53;;;4.00;;
16826;SDS011;8530;49.540;8.576;2023-12-22T10:55:27;16.77;;;5.40;;
16826;SDS011;8530;49.540;8.576;2023-12-22T10:57:55;22.50;;;4.90;;
16826;SDS011;8530;49.540;8.576;2023-12-22T11:00:22;16.03;;;4.83;;
16826;SDS011;8530;49.540;8.576;2023-12-22T11:02:49;15.83;;;4.60;;
16826;SDS011;8530;49.540;8.576;2023-12-22T11:05:23;15.10;;;4.60;;
16826;SDS011;8530;49.540;8.576;2023-12-22T11:07:52;14.53;;;5.67;;
16826;SDS011;8530;49.540;8.576;2023-12-22T11:10:21;22.90;;;6.43;;
16826;SDS011;8530;49.540;8.576;2023-12-22T11:12:49;10.83;;;4.20;;
16826;SDS011;8530;49.540;8.576;2023-12-22T11:15:18;12.80;;;3.97;;
16826;SDS011;8530;49.540;8.576;2023-12-22T11:17:48;10.30;;;4.17;;
16826;SDS011;8530;49.540;8.576;2023-12-22T11:20:15;6.70;;;3.40;;
16826;SDS011;8530;49.540;8.576;2023-12-22T11:22:43;12.07;;;3.93;;
16826;SDS011;8530;49.540;8.576;2023-12-22T11:25:12;18.13;;;5.13;;
16826;SDS011;8530;49.540;8.576;2023-12-22T11:27:41;7.27;;;3.93;;
16826;SDS011;8530;49.540;8.576;2023-12-22T11:30:09;16.43;;;5.60;;
16826;SDS011;8530;49.540;8.576;2023-12-22T11:32:40;13.83;;;3.20;;
16826;SDS011;8530;49.540;8.576;2023-12-22T11:35:08;31.63;;;4.40;;
16826;SDS011;8530;49.540;8.576;2023-12-22T11:37:35;15.17;;;4.73;;
16826;SDS011;8530;49.540;8.576;2023-12-22T11:40:04;14.77;;;4.57;;
16826;SDS011;8530;49.540;8.576;2023-12-22T11:42:33;8.43;;;3.50;;
16826;SDS011;8530;49.540;8.576;2023-12-22T11:45:04;8.60;;;3.03;;
16826;SDS011;8530;49.540;8.576;2023-12-22T11:47:31;9.13;;;3.50;;
16826;SDS011;8530;49.540;8.576;2023-12-22T11:50:02;15.70;;;3.57;;
16826;SDS011;8530;49.540;8.576;2023-12-22T11:52:29;14.00;;;3.80;;
16826;SDS011;8530;49.540;8.576;2023-12-22T11:54:57;13.87;;;3.80;;
16826;SDS011;8530;49.540;8.576;2023-12-22T11:57:30;12.33;;;3.40;;
16826;SDS011;8530;49.540;8.576;2023-12-22T11:59:56;9.93;;;3.37;;
16826;SDS011;8530;49.540;8.576;2023-12-22T12:02:24;11.33;;;3.70;;
16826;SDS011;8530;49.540;8.576;2023-12-22T12:04:51;8.63;;;3.83;;
16826;SDS011;8530;49.540;8.576;2023-12-22T12:07:39;10.53;;;4.30;;
16826;SDS011;8530;49.540;8.576;2023-12-22T12:10:09;8.73;;;4.10;;
16826;SDS011;8530;49.540;8.576;2023-12-22T12:12:36;7.17;;;3.33;;
16826;SDS011;8530;49.540;8.576;2023-12-22T12:15:08;7.43;;;2.80;;
16826;SDS011;8530;49.540;8.576;2023-12-22T12:17:39;12.83;;;3.23;;
16826;SDS011;8530;49.540;8.576;2023-12-22T12:20:07;4.03;;;2.43;;
16826;SDS011;8530;49.540;8.576;2023-12-22T12:22:36;8.03;;;3.03;;
16826;SDS011;8530;49.540;8.576;2023-12-22T12:25:07;8.10;;;2.47;;
16826;SDS011;8530;49.540;8.576;2023-12-22T12:27:35;4.53;;;2.00;;
16826;SDS011;8530;49.540;8.576;2023-12-22T12:30:07;7.70;;;2.47;;
16826;SDS011;8530;49.540;8.576;2023-12-22T12:32:36;6.00;;;2.83;;
16826;SDS011;8530;49.540;8.576;2023-12-22T12:35:07;7.60;;;2.73;;
16826;SDS011;8530;49.540;8.576;2023-12-22T12:37:34;6.90;;;2.70;;
16826;SDS011;8530;49.540;8.576;2023-12-22T12:40:02;8.07;;;2.40;;
16826;SDS011;8530;49.540;8.576;2023-12-22T12:42:33;9.50;;;3.33;;
16826;SDS011;8530;49.540;8.576;2023-12-22T12:45:02;19.23;;;6.13;;
16826;SDS011;8530;49.540;8.576;2023-12-22T12:47:30;18.17;;;9.60;;
16826;SDS011;8530;49.540;8.576;2023-12-22T12:49:57;4.63;;;2.93;;
16826;SDS011;8530;49.540;8.576;2023-12-22T12:52:24;3.57;;;1.90;;
16826;SDS011;8530;49.540;8.576;2023-12-22T12:54:51;5.10;;;1.87;;
16826;SDS011;8530;49.540;8.576;2023-12-22T12:57:18;5.67;;;1.93;;
16826;SDS011;8530;49.540;8.576;2023-12-22T12:59:48;4.23;;;2.23;;
16826;SDS011;8530;49.540;8.576;2023-12-22T13:02:15;4.03;;;1.97;;
16826;SDS011;8530;49.540;8.576;2023-12-22T13:04:42;3.60;;;2.20;;
16826;SDS011;8530;49.540;8.576;2023-12-22T13:07:08;4.90;;;1.70;;
16826;SDS011;8530;49.540;8.576;2023-12-22T13:09:38;3.50;;;1.57;;
16826;SDS011;8530;49.540;8.576;2023-12-22T13:12:06;4.10;;;1.70;;
16826;SDS011;8530;49.540;8.576;2023-12-22T13:14:33;2.13;;;1.80;;
16826;SDS011;8530;49.540;8.576;2023-12-22T13:17:02;3.30;;;1.90;;
16826;SDS011;8530;49.540;8.576;2023-12-22T13:19:29;1.80;;;1.60;;
16826;SDS011;8530;49.540;8.576;2023-12-22T13:21:56;1.73;;;1.63;;
16826;SDS011;8530;49.540;8.576;2023-12-22T13:24:22;1.80;;;1.53;;
16826;SDS011;8530;49.540;8.576;2023-12-22T13:26:58;2.63;;;2.00;;
16826;SDS011;8530;49.540;8.576;2023-12-22T13:29:26;1.43;;;1.33;;
16826;SDS011;8530;49.540;8.576;2023-12-22T13:31:53;2.57;;;2.00;;
16826;SDS011;8530;49.540;8.576;2023-12-22T13:34:21;3.50;;;1.70;;
16826;SDS011;8530;49.540;8.576;2023-12-22T13:36:48;1.83;;;1.60;;
16826;SDS011;8530;49.540;8.576;2023-12-22T13:39:15;2.63;;;2.40;;
16826;SDS011;8530;49.540;8.576;2023-12-22T13:41:41;3.50;;;2.00;;
16826;SDS011;8530;49.540;8.576;2023-12-22T13:44:11;1.70;;;1.60;;
16826;SDS011;8530;49.540;8.576;2023-12-22T13:46:37;4.20;;;2.57;;
16826;SDS011;8530;49.540;8.576;2023-12-22T13:49:07;3.10;;;2.50;;
16826;SDS011;8530;49.540;8.576;2023-12-22T13:51:40;3.30;;;1.67;;
16826;SDS011;8530;49.540;8.576;2023-12-22T13:54:07;2.07;;;1.63;;
16826;SDS011;8530;49.540;8.576;2023-12-22T13:56:34;2.23;;;2.03;;
16826;SDS011;8530;49.540;8.576;2023-12-22T13:59:02;3.10;;;1.90;;
16826;SDS011;8530;49.540;8.576;2023-12-22T14:01:28;3.33;;;2.10;;
16826;SDS011;8530;49.540;8.576;2023-12-22T14:03:55;5.30;;;2.33;;
16826;SDS011;8530;49.540;8.576;2023-12-22T14:06:23;1.93;;;1.70;;
16826;SDS011;8530;49.540;8.576;2023-12-22T14:08:51;2.70;;;2.10;;
16826;SDS011;8530;49.540;8.576;2023-12-22T14:11:18;3.53;;;2.60;;
16826;SDS011;8530;49.540;8.576;2023-12-22T14:13:45;7.63;;;3.67;;
16826;SDS011;8530;49.540;8.576;2023-12-22T14:16:12;3.40;;;2.60;;
16826;SDS011;8530;49.540;8.576;2023-12-22T14:18:40;3.90;;;2.50;;
16826;SDS011;8530;49.540;8.576;2023-12-22T14:21:06;6.10;;;3.67;;
16826;SDS011;8530;49.540;8.576;2023-12-22T14:23:33;6.97;;;4.17;;
16826;SDS011;8530;49.540;8.576;2023-12-22T14:26:01;5.20;;;3.40;;
16826;SDS011;8530;49.540;8.576;2023-12-22T14:28:28;6.50;;;3.20;;
16826;SDS011;8530;49.540;8.576;2023-12-22T14:30:55;4.83;;;2.80;;
16826;SDS011;8530;49.540;8.576;2023-12-22T14:33:21;4.53;;;3.40;;
16826;SDS011;8530;49.540;8.576;2023-12-22T14:35:48;5.33;;;3.50;;
16826;SDS011;8530;49.540;8.576;2023-12-22T14:38:15;5.40;;;2.23;;
16826;SDS011;8530;49.540;8.576;2023-12-22T14:40:41;6.80;;;3.10;;
16826;SDS011;8530;49.540;8.576;2023-12-22T14:43:10;6.87;;;3.90;;
16826;SDS011;8530;49.540;8.576;2023-12-22T14:45:36;10.43;;;3.90;;
16826;SDS011;8530;49.540;8.576;2023-12-22T14:48:03;6.47;;;2.90;;
16826;SDS011;8530;49.540;8.576;2023-12-22T14:50:31;3.63;;;2.87;;
16826;SDS011;8530;49.540;8.576;2023-12-22T14:52:57;6.93;;;2.90;;
16826;SDS011;8530;49.540;8.576;2023-12-22T14:55:24;3.77;;;2.50;;
16826;SDS011;8530;49.540;8.576;2023-12-22T14:57:51;6.43;;;1.87;;
16826;SDS011;8530;49.540;8.576;2023-12-22T15:00:19;2.60;;;2.00;;